Time;durP1;ratioP1;P1;durP2;ratioP2;P2;SDS_P1;SDS_P2;PMS_P1;PMS_P2;Temp;Humidity;BMP_temperature;BMP_pressure;BME280_temperature;BME280_humidity;BME280_pressure;Samples;Min_cycle;Max_cycle;Signal;HPM_P1;HPM_P2
2023/03/17 00:05:18;;;;;;;;;;;6.10;1.00;;;;;;5075063;28;19915;-84
2023/03/17 00:07:45;;;;;;;;;;;6.10;1.00;;;;;;5075105;28;19908;-84
2023/03/17 00:16:21;;;;;;;;;;;6.20;1.00;;;;;;5078160;28;20355;-84
2023/03/17 00:24:53;;;;;;;;;;;6.10;1.00;;;;;;5085101;28;19958;-84
2023/03/17 00:27:20;;;;;;;;;;;6.10;1.00;;;;;;5074819;28;19943;-84
2023/03/17 00:30:08;;;;;;;;;;;6.10;1.00;;;;;;5074916;28;19923;-84
2023/03/17 00:32:45;;;;;;;;;;;6.10;1.00;;;;;;5075727;28;19974;-84
2023/03/17 00:38:18;;;;;;;;;;;6.10;1.00;;;;;;5082599;28;19954;-84
2023/03/17 00:40:44;;;;;;;;;;;6.10;1.00;;;;;;5094760;28;19915;-84
2023/03/17 00:49:26;;;;;;;;;;;6.00;1.00;;;;;;5094516;28;19995;-84
2023/03/17 00:54:55;;;;;;;;;;;6.00;1.00;;;;;;5079102;28;19924;-84
2023/03/17 00:57:21;;;;;;;;;;;5.90;1.00;;;;;;5094810;28;19909;-85
2023/03/17 00:59:50;;;;;;;;;;;5.90;1.00;;;;;;5094782;28;19915;-84
2023/03/17 01:02:21;;;;;;;;;;;5.90;1.00;;;;;;5094747;28;20003;-75
2023/03/17 01:04:57;;;;;;;;;;;5.90;1.00;;;;;;5092667;28;20279;-75
2023/03/17 01:07:27;;;;;;;;;;;5.90;1.00;;;;;;5093919;28;19908;-75
2023/03/17 01:09:53;;;;;;;;;;;5.80;1.00;;;;;;5073748;28;19916;-75
2023/03/17 01:12:26;;;;;;;;;;;5.80;1.00;;;;;;5094582;28;19908;-75
2023/03/17 01:15:02;;;;;;;;;;;5.70;1.00;;;;;;5094299;28;19916;-75
2023/03/17 01:20:31;;;;;;;;;;;5.70;1.00;;;;;;5094628;28;20327;-84
2023/03/17 01:23:15;;;;;;;;;;;5.60;1.00;;;;;;5094108;28;19919;-84
2023/03/17 01:26:08;;;;;;;;;;;5.60;1.00;;;;;;5094377;28;19915;-84
2023/03/17 01:28:39;;;;;;;;;;;5.60;1.00;;;;;;5094651;28;20065;-84
2023/03/17 01:31:04;;;;;;;;;;;5.60;1.00;;;;;;5094372;28;20264;-84
2023/03/17 01:33:38;;;;;;;;;;;5.60;1.00;;;;;;5071531;28;19916;-84
2023/03/17 01:36:39;;;;;;;;;;;5.60;1.00;;;;;;5093283;28;19922;-84
2023/03/17 01:39:14;;;;;;;;;;;5.60;1.00;;;;;;5072921;28;19916;-84
2023/03/17 01:41:55;;;;;;;;;;;5.60;1.00;;;;;;5073916;28;19909;-84
2023/03/17 01:44:44;;;;;;;;;;;5.70;1.00;;;;;;5074218;28;19908;-84
2023/03/17 01:47:15;;;;;;;;;;;5.70;1.00;;;;;;5079763;28;19916;-75
2023/03/17 01:49:41;;;;;;;;;;;5.70;1.00;;;;;;5093867;28;19959;-75
2023/03/17 01:52:10;;;;;;;;;;;5.70;1.00;;;;;;5075368;28;19908;-75
2023/03/17 01:54:49;;;;;;;;;;;5.60;1.00;;;;;;5085843;28;19920;-76
2023/03/17 01:57:14;;;;;;;;;;;5.60;1.00;;;;;;5093509;28;19912;-75
2023/03/17 01:59:52;;;;;;;;;;;5.60;1.00;;;;;;5075589;28;19912;-75
2023/03/17 02:02:21;;;;;;;;;;;5.50;1.00;;;;;;5093627;28;19908;-84
2023/03/17 02:04:51;;;;;;;;;;;5.50;1.00;;;;;;5077958;28;19912;-83
2023/03/17 02:07:18;;;;;;;;;;;5.50;1.00;;;;;;5093150;28;19912;-84
2023/03/17 02:09:44;;;;;;;;;;;5.40;1.00;;;;;;5092621;28;20252;-84
2023/03/17 02:15:20;;;;;;;;;;;5.30;1.00;;;;;;5074447;28;19946;-84
2023/03/17 02:18:02;;;;;;;;;;;5.20;1.00;;;;;;5073998;28;19955;-84
2023/03/17 02:23:30;;;;;;;;;;;5.10;1.00;;;;;;5097110;28;19989;-84
2023/03/17 02:26:04;;;;;;;;;;;5.10;1.00;;;;;;5095196;28;20280;-84
2023/03/17 02:28:50;;;;;;;;;;;5.00;1.00;;;;;;5094884;28;19908;-84
2023/03/17 02:31:23;;;;;;;;;;;5.00;1.00;;;;;;5077259;28;19920;-84
2023/03/17 02:33:56;;;;;;;;;;;4.90;1.00;;;;;;5083419;28;20030;-84
2023/03/17 02:39:24;;;;;;;;;;;4.90;1.00;;;;;;5097085;28;19969;-84
2023/03/17 02:41:56;;;;;;;;;;;4.90;1.00;;;;;;5097311;28;19999;-84
2023/03/17 02:47:26;;;;;;;;;;;4.80;1.00;;;;;;5077690;28;19950;-75
2023/03/17 02:49:56;;;;;;;;;;;4.80;1.00;;;;;;5076810;28;19913;-75
2023/03/17 02:52:22;;;;;;;;;;;4.80;1.00;;;;;;5076620;28;19916;-75
2023/03/17 02:54:50;;;;;;;;;;;4.80;1.00;;;;;;5085682;28;19912;-75
2023/03/17 02:57:16;;;;;;;;;;;4.80;1.00;;;;;;5096625;28;19908;-75
2023/03/17 02:59:44;;;;;;;;;;;4.70;1.00;;;;;;5096489;28;19915;-75
2023/03/17 03:02:10;;;;;;;;;;;4.70;1.00;;;;;;5091961;28;19909;-81
2023/03/17 03:04:36;;;;;;;;;;;4.70;1.00;;;;;;5083053;28;19973;-75
2023/03/17 03:07:02;;;;;;;;;;;4.60;1.00;;;;;;5095945;28;20282;-74
2023/03/17 03:09:28;;;;;;;;;;;4.60;1.00;;;;;;5096145;28;20453;-75
2023/03/17 03:11:54;;;;;;;;;;;4.60;1.00;;;;;;5095829;28;19912;-76
2023/03/17 03:14:20;;;;;;;;;;;4.50;1.00;;;;;;5094916;28;19908;-74
2023/03/17 03:16:46;;;;;;;;;;;4.50;1.00;;;;;;5095903;28;19935;-74
2023/03/17 03:19:12;;;;;;;;;;;4.40;1.00;;;;;;5096429;28;19912;-74
2023/03/17 03:21:37;;;;;;;;;;;4.30;1.00;;;;;;5096059;28;19908;-75
2023/03/17 03:24:03;;;;;;;;;;;4.30;1.00;;;;;;5094815;28;20003;-74
2023/03/17 03:26:32;;;;;;;;;;;4.20;1.00;;;;;;5093722;28;19912;-75
2023/03/17 03:29:03;;;;;;;;;;;4.20;1.00;;;;;;5057752;28;19908;-75
2023/03/17 03:31:28;;;;;;;;;;;4.10;1.00;;;;;;5094499;28;20010;-75
2023/03/17 03:33:54;;;;;;;;;;;4.10;1.00;;;;;;5096076;28;19948;-74
2023/03/17 03:36:20;;;;;;;;;;;4.00;1.00;;;;;;5094367;28;19916;-75
2023/03/17 03:38:46;;;;;;;;;;;4.00;1.00;;;;;;5095924;28;19916;-75
2023/03/17 03:41:14;;;;;;;;;;;3.90;1.00;;;;;;5080162;28;19916;-75
2023/03/17 03:43:40;;;;;;;;;;;3.90;1.00;;;;;;5059046;28;19913;-74
2023/03/17 03:46:05;;;;;;;;;;;3.80;1.00;;;;;;5094538;28;19912;-75
2023/03/17 03:48:31;;;;;;;;;;;3.80;1.00;;;;;;5096346;28;20275;-75
2023/03/17 03:50:58;;;;;;;;;;;3.70;1.00;;;;;;5094979;28;19996;-75
2023/03/17 03:53:24;;;;;;;;;;;3.70;1.00;;;;;;5074525;28;19908;-74
2023/03/17 03:55:56;;;;;;;;;;;3.70;1.00;;;;;;5090319;28;20310;-75
2023/03/17 03:58:26;;;;;;;;;;;3.60;1.00;;;;;;5095588;28;19957;-75
2023/03/17 04:01:03;;;;;;;;;;;3.60;1.00;;;;;;5093725;28;19912;-75
2023/03/17 04:03:32;;;;;;;;;;;3.60;1.00;;;;;;5096009;28;19908;-83
2023/03/17 04:05:58;;;;;;;;;;;3.50;1.00;;;;;;5095367;28;19908;-83
2023/03/17 04:14:29;;;;;;;;;;;3.40;1.00;;;;;;5094834;28;19919;-83
2023/03/17 04:17:04;;;;;;;;;;;3.40;1.00;;;;;;5095288;28;19912;-83
2023/03/17 04:19:30;;;;;;;;;;;3.40;1.00;;;;;;5095492;28;19908;-74
2023/03/17 04:21:55;;;;;;;;;;;3.30;1.00;;;;;;5095056;28;20396;-74
2023/03/17 04:24:21;;;;;;;;;;;3.30;1.00;;;;;;5094922;28;19908;-74
2023/03/17 04:26:47;;;;;;;;;;;3.20;1.00;;;;;;5094463;28;19935;-74
2023/03/17 04:29:14;;;;;;;;;;;3.20;1.00;;;;;;5088120;28;20240;-74
2023/03/17 04:31:41;;;;;;;;;;;3.20;1.00;;;;;;5076865;28;19908;-74
2023/03/17 04:34:38;;;;;;;;;;;3.10;1.00;;;;;;5095324;28;19931;-84
2023/03/17 04:40:08;;;;;;;;;;;3.00;1.00;;;;;;5094495;28;19958;-83
2023/03/17 04:42:50;;;;;;;;;;;3.00;1.00;;;;;;5093890;28;19920;-83
2023/03/17 04:45:26;;;;;;;;;;;3.00;1.00;;;;;;5097645;28;19912;-87
2023/03/17 04:50:55;;;;;;;;;;;2.80;1.00;;;;;;5074277;28;19924;-86
2023/03/17 04:59:32;;;;;;;;;;;2.70;1.00;;;;;;5074643;28;20015;-87
2023/03/17 05:05:01;;;;;;;;;;;2.60;1.00;;;;;;5074540;28;20330;-82
2023/03/17 05:07:32;;;;;;;;;;;2.60;1.00;;;;;;5073780;28;19908;-81
2023/03/17 05:10:26;;;;;;;;;;;2.60;1.00;;;;;;5077080;28;19965;-81
2023/03/17 05:13:20;;;;;;;;;;;2.60;1.00;;;;;;5075687;28;19955;-82
2023/03/17 05:15:51;;;;;;;;;;;2.50;1.00;;;;;;5075975;28;19919;-81
2023/03/17 05:21:20;;;;;;;;;;;2.50;1.00;;;;;;5094063;28;19931;-82
2023/03/17 05:23:56;;;;;;;;;;;2.60;1.00;;;;;;5084198;28;20359;-81
2023/03/17 05:26:27;;;;;;;;;;;2.40;1.00;;;;;;5094102;28;19908;-81
2023/03/17 05:29:14;;;;;;;;;;;2.30;1.00;;;;;;5094027;28;19938;-82
2023/03/17 05:37:47;;;;;;;;;;;2.20;1.00;;;;;;5093556;28;20378;-81
2023/03/17 05:40:44;;;;;;;;;;;2.10;1.00;;;;;;5093704;28;19912;-81
2023/03/17 05:43:44;;;;;;;;;;;2.10;1.00;;;;;;5094147;28;20356;-82
2023/03/17 05:52:17;;;;;;;;;;;2.10;1.00;;;;;;5093180;28;19919;-82
2023/03/17 05:57:45;;;;;;;;;;;2.10;1.00;;;;;;5096765;28;20274;-81
2023/03/17 06:00:21;;;;;;;;;;;2.70;1.00;;;;;;5095783;28;19908;-81
2023/03/17 06:02:56;;;;;;;;;;;2.10;1.00;;;;;;5059087;28;19908;-82
2023/03/17 06:05:44;;;;;;;;;;;2.10;1.00;;;;;;5077266;28;19908;-82
2023/03/17 06:08:44;;;;;;;;;;;2.20;1.00;;;;;;5087051;28;19908;-81
2023/03/17 06:11:14;;;;;;;;;;;2.20;1.00;;;;;;5100136;28;19923;-81
2023/03/17 06:13:47;;;;;;;;;;;2.20;1.00;;;;;;5075242;28;19916;-82
2023/03/17 06:16:14;;;;;;;;;;;2.20;1.00;;;;;;5076669;28;19916;-81
2023/03/17 06:21:43;;;;;;;;;;;2.30;1.00;;;;;;5076776;28;20024;-82
2023/03/17 06:24:44;;;;;;;;;;;2.40;1.00;;;;;;5078564;28;20367;-82
2023/03/17 06:30:13;;;;;;;;;;;2.50;1.00;;;;;;5096554;28;19923;-81
2023/03/17 06:32:44;;;;;;;;;;;2.60;1.00;;;;;;5078911;28;19912;-82
2023/03/17 06:35:14;;;;;;;;;;;2.60;1.00;;;;;;5096690;28;19912;-89
2023/03/17 06:40:43;;;;;;;;;;;2.70;1.00;;;;;;5097217;28;20283;-86
2023/03/17 06:43:26;;;;;;;;;;;2.80;1.00;;;;;;5091836;28;19908;-86
2023/03/17 06:46:14;;;;;;;;;;;2.90;1.00;;;;;;5097540;28;20011;-86
2023/03/17 06:49:02;;;;;;;;;;;3.00;1.00;;;;;;5091168;28;19915;-86
2023/03/17 06:51:38;;;;;;;;;;;3.10;1.00;;;;;;5093769;28;19919;-80
2023/03/17 06:54:26;;;;;;;;;;;3.10;1.00;;;;;;5058659;28;19912;-82
2023/03/17 06:59:56;;;;;;;;;;;3.40;1.00;;;;;;5116408;28;19915;-81
2023/03/17 07:02:23;;;;;;;;;;;3.50;1.00;;;;;;5067796;28;19908;-81
2023/03/17 07:10:56;;;;;;;;;;;4.00;1.00;;;;;;5088660;28;19962;-80
2023/03/17 07:13:39;;;;;;;;;;;4.30;1.00;;;;;;5084048;28;19915;-81
2023/03/17 07:16:15;;;;;;;;;;;4.40;1.00;;;;;;5077646;28;19927;-81
2023/03/17 07:21:43;;;;;;;;;;;4.70;1.00;;;;;;5095983;28;19918;-81
2023/03/17 07:24:26;;;;;;;;;;;5.00;1.00;;;;;;5077884;28;19977;-82
2023/03/17 07:27:02;;;;;;;;;;;5.20;1.00;;;;;;5095910;28;19908;-81
2023/03/17 07:29:33;;;;;;;;;;;5.40;1.00;;;;;;5057739;28;19912;-81
2023/03/17 07:32:00;;;;;;;;;;;5.60;1.00;;;;;;5057586;28;19971;-81
2023/03/17 07:34:27;;;;;;;;;;;5.80;1.00;;;;;;5075411;28;19998;-81
2023/03/17 07:36:56;;;;;;;;;;;5.90;1.00;;;;;;5070266;28;19912;-75
2023/03/17 07:39:22;;;;;;;;;;;6.10;1.00;;;;;;5096080;28;19957;-75
2023/03/17 07:41:51;;;;;;;;;;;6.30;1.00;;;;;;5077770;28;19912;-76
2023/03/17 07:44:18;;;;;;;;;;;6.50;1.00;;;;;;5095727;28;19964;-75
2023/03/17 07:46:51;;;;;;;;;;;6.70;1.00;;;;;;5095713;28;19919;-76
2023/03/17 07:52:33;;;;;;;;;;;7.00;1.00;;;;;;5095609;28;19974;-79
2023/03/17 07:54:59;;;;;;;;;;;7.20;1.00;;;;;;5094635;28;19912;-78
2023/03/17 07:57:32;;;;;;;;;;;7.40;1.00;;;;;;5076313;28;19916;-78
2023/03/17 08:03:01;;;;;;;;;;;7.70;1.00;;;;;;5095119;28;20371;-82
2023/03/17 08:05:50;;;;;;;;;;;8.00;1.00;;;;;;5095426;28;19908;-87
2023/03/17 08:08:27;;;;;;;;;;;8.10;1.00;;;;;;5077505;28;19912;-86
2023/03/17 08:11:20;;;;;;;;;;;8.30;1.00;;;;;;5074301;28;19908;-87
2023/03/17 08:19:52;;;;;;;;;;;8.80;1.00;;;;;;5094964;28;19931;-86
2023/03/17 08:25:21;;;;;;;;;;;9.10;1.00;;;;;;5095331;28;19916;-87
2023/03/17 08:30:50;;;;;;;;;;;9.40;1.00;;;;;;5095122;28;20374;-86
2023/03/17 08:39:40;;;;;;;;;;;9.90;1.00;;;;;;5074862;28;19962;-86
2023/03/17 08:45:09;;;;;;;;;;;10.10;1.00;;;;;;5077427;28;19915;-87
2023/03/17 08:57:08;;;;;;;;;;;10.70;1.00;;;;;;5075682;28;19988;-87
2023/03/17 08:59:51;;;;;;;;;;;10.90;1.00;;;;;;5088942;28;19995;-87
2023/03/17 09:05:50;;;;;;;;;;;11.40;1.00;;;;;;5094756;28;19958;-87
2023/03/17 09:08:21;;;;;;;;;;;11.70;1.00;;;;;;5094064;28;19912;-82
2023/03/17 09:10:56;;;;;;;;;;;12.10;1.00;;;;;;5076075;28;19939;-82
2023/03/17 09:13:33;;;;;;;;;;;12.40;1.00;;;;;;5075360;28;19943;-82
2023/03/17 09:16:27;;;;;;;;;;;12.80;1.00;;;;;;5067477;28;19919;-82
2023/03/17 09:19:03;;;;;;;;;;;13.10;1.00;;;;;;5072795;28;19908;-82
2023/03/17 09:21:32;;;;;;;;;;;13.20;1.00;;;;;;5074185;28;19908;-81
2023/03/17 09:24:08;;;;;;;;;;;13.70;1.00;;;;;;5073699;28;19909;-82
2023/03/17 09:26:58;;;;;;;;;;;14.10;1.00;;;;;;5073794;28;20020;-82
2023/03/17 09:29:44;;;;;;;;;;;14.20;1.00;;;;;;5074965;28;19908;-82
2023/03/17 09:32:26;;;;;;;;;;;14.50;1.00;;;;;;5095153;28;19916;-82
2023/03/17 09:37:55;;;;;;;;;;;14.80;1.00;;;;;;5098311;28;19966;-82
2023/03/17 09:40:31;;;;;;;;;;;14.90;1.00;;;;;;5078908;28;19916;-82
2023/03/17 09:46:03;;;;;;;;;;;15.10;1.00;;;;;;5097539;28;19918;-82
2023/03/17 09:48:35;;;;;;;;;;;15.30;1.00;;;;;;5072194;28;19966;-82
2023/03/17 09:51:32;;;;;;;;;;;15.30;1.00;;;;;;5079589;28;19912;-82
2023/03/17 09:57:19;;;;;;;;;;;15.50;1.00;;;;;;5087501;28;19970;-87
2023/03/17 10:02:48;;;;;;;;;;;15.70;1.00;;;;;;5085757;28;19915;-90
2023/03/17 10:05:28;;;;;;;;;;;15.90;1.00;;;;;;5080050;28;19908;-88
2023/03/17 10:08:14;;;;;;;;;;;16.00;1.00;;;;;;5059466;28;19967;-81
2023/03/17 10:14:02;;;;;;;;;;;16.10;1.00;;;;;;5090422;28;19920;-76
2023/03/17 10:16:50;;;;;;;;;;;16.20;1.00;;;;;;5095728;28;19916;-76
2023/03/17 10:19:26;;;;;;;;;;;16.30;1.00;;;;;;5094424;28;19934;-76
2023/03/17 10:21:57;;;;;;;;;;;16.40;1.00;;;;;;5096529;28;19924;-78
2023/03/17 10:24:24;;;;;;;;;;;16.50;1.00;;;;;;5096965;28;19991;-78
2023/03/17 10:26:58;;;;;;;;;;;16.60;1.00;;;;;;5078722;28;19908;-78
2023/03/17 10:29:45;;;;;;;;;;;16.60;1.00;;;;;;5090059;28;19912;-78
2023/03/17 10:32:29;;;;;;;;;;;16.30;1.00;;;;;;5086536;28;19920;-78
2023/03/17 10:34:56;;;;;;;;;;;16.20;1.00;;;;;;5091313;28;19939;-78
2023/03/17 10:37:22;;;;;;;;;;;16.40;1.00;;;;;;5093865;28;19912;-76
2023/03/17 10:39:52;;;;;;;;;;;16.60;1.00;;;;;;5095561;28;19916;-76
2023/03/17 10:42:44;;;;;;;;;;;16.70;1.00;;;;;;5080400;28;20007;-76
2023/03/17 10:45:16;;;;;;;;;;;17.00;1.00;;;;;;5076813;28;20390;-75
2023/03/17 10:47:46;;;;;;;;;;;17.20;1.00;;;;;;5076515;28;19916;-76
2023/03/17 10:50:12;;;;;;;;;;;17.40;1.00;;;;;;5078953;28;19927;-76
2023/03/17 10:52:39;;;;;;;;;;;17.60;1.00;;;;;;5094588;28;20326;-76
2023/03/17 10:55:05;;;;;;;;;;;17.80;1.00;;;;;;5092452;28;19943;-76
2023/03/17 10:57:32;;;;;;;;;;;17.90;1.00;;;;;;5091944;28;19958;-76
2023/03/17 11:00:00;;;;;;;;;;;17.90;1.00;;;;;;5088846;28;19912;-75
2023/03/17 11:02:35;;;;;;;;;;;17.70;1.00;;;;;;5088427;28;19995;-76
2023/03/17 11:05:08;;;;;;;;;;;17.80;1.00;;;;;;5089752;28;19917;-76
2023/03/17 11:07:37;;;;;;;;;;;18.00;1.00;;;;;;5093999;28;20278;-76
2023/03/17 11:13:15;;;;;;;;;;;17.50;1.00;;;;;;5091986;28;20299;-76
2023/03/17 11:15:47;;;;;;;;;;;17.70;1.00;;;;;;5085533;28;20283;-75
2023/03/17 11:18:18;;;;;;;;;;;17.80;1.00;;;;;;5082144;28;19922;-75
2023/03/17 11:20:57;;;;;;;;;;;17.90;1.00;;;;;;5090223;28;19912;-76
2023/03/17 11:23:45;;;;;;;;;;;18.10;1.00;;;;;;5091589;28;19966;-76
2023/03/17 11:26:16;;;;;;;;;;;18.50;1.00;;;;;;5079240;28;19914;-76
2023/03/17 11:29:07;;;;;;;;;;;18.80;1.00;;;;;;5076597;28;19940;-76
2023/03/17 11:32:08;;;;;;;;;;;18.90;1.00;;;;;;5094309;28;19916;-76
2023/03/17 11:34:44;;;;;;;;;;;19.10;1.00;;;;;;5010533;28;20132;-76
2023/03/17 11:37:20;;;;;;;;;;;19.30;1.00;;;;;;4994115;28;20350;-76
2023/03/17 11:42:56;;;;;;;;;;;19.30;1.00;;;;;;5012155;28;19964;-82
2023/03/17 11:45:50;;;;;;;;;;;19.30;1.00;;;;;;5012834;28;20365;-83
2023/03/17 11:48:21;;;;;;;;;;;19.20;1.00;;;;;;5013014;28;19913;-82
2023/03/17 11:51:08;;;;;;;;;;;19.40;1.00;;;;;;5013551;28;19914;-83
2023/03/17 11:53:56;;;;;;;;;;;19.50;1.00;;;;;;4996817;28;19913;-88
2023/03/17 11:56:26;;;;;;;;;;;19.50;1.00;;;;;;5013761;28;19952;-88
2023/03/17 11:59:05;;;;;;;;;;;19.60;1.00;;;;;;5009481;28;20292;-86
2023/03/17 12:01:44;;;;;;;;;;;19.60;1.00;;;;;;4993648;28;20266;-87
2023/03/17 12:04:17;;;;;;;;;;;19.60;1.00;;;;;;4985408;28;19914;-86
2023/03/17 12:07:00;;;;;;;;;;;19.70;1.00;;;;;;4996638;28;19969;-85
2023/03/17 12:09:36;;;;;;;;;;;19.80;1.00;;;;;;4996188;28;19921;-85
2023/03/17 12:12:03;;;;;;;;;;;20.00;1.00;;;;;;5079591;28;20368;-82
2023/03/17 12:14:32;;;;;;;;;;;20.30;1.00;;;;;;5074428;28;20260;-82
2023/03/17 12:20:15;;;;;;;;;;;20.00;1.00;;;;;;5094125;28;19912;-88
2023/03/17 12:22:53;;;;;;;;;;;19.90;1.00;;;;;;5090309;28;19924;-82
2023/03/17 12:25:24;;;;;;;;;;;19.70;1.00;;;;;;5071052;28;19908;-81
2023/03/17 12:28:10;;;;;;;;;;;19.80;1.00;;;;;;5073629;28;19950;-82
2023/03/17 12:30:44;;;;;;;;;;;19.80;1.00;;;;;;5092262;28;19915;-82
2023/03/17 12:33:15;;;;;;;;;;;19.80;1.00;;;;;;5086071;28;19920;-83
2023/03/17 12:36:02;;;;;;;;;;;19.80;1.00;;;;;;5092992;28;20256;-83
2023/03/17 12:38:39;;;;;;;;;;;19.40;1.00;;;;;;5082844;28;19958;-82
2023/03/17 12:41:23;;;;;;;;;;;19.50;1.00;;;;;;5076315;28;19908;-79
2023/03/17 12:43:58;;;;;;;;;;;19.30;1.00;;;;;;5088314;28;19959;-80
2023/03/17 12:46:50;;;;;;;;;;;19.30;1.00;;;;;;5068870;28;19951;-85
2023/03/17 12:49:53;;;;;;;;;;;19.20;1.00;;;;;;5075083;28;19944;-86
2023/03/17 12:52:21;;;;;;;;;;;19.30;1.00;;;;;;5012629;28;20258;-84
2023/03/17 12:54:59;;;;;;;;;;;19.50;1.00;;;;;;5012821;28;19910;-85
2023/03/17 12:57:28;;;;;;;;;;;19.50;1.00;;;;;;5022398;28;20391;-85
2023/03/17 13:00:14;;;;;;;;;;;19.70;1.00;;;;;;5032413;28;19947;-84
2023/03/17 13:02:44;;;;;;;;;;;19.80;1.00;;;;;;5032128;28;19996;-84
2023/03/17 13:05:44;;;;;;;;;;;20.00;1.00;;;;;;5031147;28;19913;-84
2023/03/17 13:08:20;;;;;;;;;;;19.80;1.00;;;;;;5016698;28;19917;-84
2023/03/17 13:10:50;;;;;;;;;;;19.70;1.00;;;;;;4996509;28;19909;-87
2023/03/17 13:16:29;;;;;;;;;;;19.60;1.00;;;;;;5012602;28;19929;-87
2023/03/17 13:19:14;;;;;;;;;;;19.90;1.00;;;;;;4996409;28;19913;-86
2023/03/17 13:21:48;;;;;;;;;;;20.00;1.00;;;;;;5031559;28;20024;-87
2023/03/17 13:24:15;;;;;;;;;;;20.00;1.00;;;;;;5014548;28;20024;-86
2023/03/17 13:29:44;;;;;;;;;;;19.90;1.00;;;;;;5094414;28;19935;-86
2023/03/17 13:32:16;;;;;;;;;;;19.90;1.00;;;;;;5076302;28;19912;-87
2023/03/17 13:35:17;;;;;;;;;;;20.00;1.00;;;;;;5094396;28;19948;-87
2023/03/17 13:37:58;;;;;;;;;;;20.10;1.00;;;;;;5012550;28;19988;-85
2023/03/17 13:40:56;;;;;;;;;;;19.80;1.00;;;;;;5011968;28;20319;-81
2023/03/17 13:46:29;;;;;;;;;;;19.60;1.00;;;;;;4996112;28;20371;-81
2023/03/17 13:49:00;;;;;;;;;;;19.70;1.00;;;;;;4995338;28;19913;-80
2023/03/17 13:51:40;;;;;;;;;;;19.80;1.00;;;;;;4995287;28;19913;-82
2023/03/17 13:57:28;;;;;;;;;;;19.80;1.00;;;;;;5012254;28;19995;-87
2023/03/17 13:59:56;;;;;;;;;;;19.90;1.00;;;;;;4995665;28;19916;-85
2023/03/17 14:05:27;;;;;;;;;;;19.80;1.00;;;;;;5012672;28;20320;-87
2023/03/17 14:08:01;;;;;;;;;;;19.90;1.00;;;;;;5012529;28;19909;-87
2023/03/17 14:13:34;;;;;;;;;;;19.80;1.00;;;;;;5074118;28;20003;-88
2023/03/17 14:16:08;;;;;;;;;;;19.80;1.00;;;;;;5085413;28;19938;-88
2023/03/17 14:21:37;;;;;;;;;;;20.00;1.00;;;;;;5097916;28;19935;-88
2023/03/17 14:27:26;;;;;;;;;;;20.00;1.00;;;;;;5097766;28;20001;-84
2023/03/17 14:32:58;;;;;;;;;;;20.00;1.00;;;;;;5096849;28;19927;-85
2023/03/17 14:35:44;;;;;;;;;;;19.90;1.00;;;;;;5075473;28;20023;-84
2023/03/17 14:41:13;;;;;;;;;;;19.80;1.00;;;;;;5097691;28;20322;-84
2023/03/17 14:43:45;;;;;;;;;;;19.80;1.00;;;;;;5096390;28;19908;-84
2023/03/17 14:46:15;;;;;;;;;;;19.70;1.00;;;;;;5096888;28;19919;-85
2023/03/17 14:48:41;;;;;;;;;;;19.60;1.00;;;;;;5097501;28;19915;-85
2023/03/17 14:51:22;;;;;;;;;;;19.60;1.00;;;;;;5078698;28;19951;-81
2023/03/17 14:53:58;;;;;;;;;;;19.50;1.00;;;;;;5096238;28;19912;-82
2023/03/17 14:56:28;;;;;;;;;;;19.50;1.00;;;;;;5078750;28;19947;-88
2023/03/17 15:02:36;;;;;;;;;;;19.30;1.00;;;;;;5096590;28;19915;-87
2023/03/17 15:11:22;;;;;;;;;;;19.10;1.00;;;;;;5096851;28;19915;-87
2023/03/17 15:16:51;;;;;;;;;;;19.00;1.00;;;;;;5096527;28;20011;-84
2023/03/17 15:22:21;;;;;;;;;;;18.80;1.00;;;;;;5096576;28;19962;-87
2023/03/17 15:27:50;;;;;;;;;;;18.70;1.00;;;;;;5095791;28;19915;-84
2023/03/17 15:30:44;;;;;;;;;;;18.70;1.00;;;;;;5096191;28;19923;-84
2023/03/17 15:33:38;;;;;;;;;;;18.60;1.00;;;;;;5075743;28;19916;-86
2023/03/17 15:36:14;;;;;;;;;;;18.50;1.00;;;;;;5076287;28;19924;-86
2023/03/17 15:38:45;;;;;;;;;;;18.50;1.00;;;;;;5075605;28;19909;-84
2023/03/17 15:44:13;;;;;;;;;;;18.40;1.00;;;;;;5095451;28;20378;-80
2023/03/17 15:46:50;;;;;;;;;;;18.30;1.00;;;;;;5077239;28;19908;-81
2023/03/17 15:49:23;;;;;;;;;;;18.30;1.00;;;;;;5096571;28;19916;-81
2023/03/17 15:51:56;;;;;;;;;;;18.30;1.00;;;;;;5095199;28;19916;-81
2023/03/17 15:54:32;;;;;;;;;;;18.30;1.00;;;;;;5076958;28;19966;-82
2023/03/17 15:57:02;;;;;;;;;;;18.30;1.00;;;;;;5095984;28;19912;-83
2023/03/17 15:59:33;;;;;;;;;;;18.30;1.00;;;;;;5077171;28;19908;-83
2023/03/17 16:02:29;;;;;;;;;;;18.20;1.00;;;;;;5076837;28;19912;-81
2023/03/17 16:05:20;;;;;;;;;;;18.20;1.00;;;;;;4993621;28;19914;-81
2023/03/17 16:08:03;;;;;;;;;;;18.10;1.00;;;;;;4993939;28;19910;-82
2023/03/17 16:10:39;;;;;;;;;;;17.90;1.00;;;;;;4993480;28;19910;-82
2023/03/17 16:16:14;;;;;;;;;;;17.80;1.00;;;;;;4993681;28;19921;-82
2023/03/17 16:19:09;;;;;;;;;;;17.60;1.00;;;;;;4993150;28;19917;-82
2023/03/17 16:21:39;;;;;;;;;;;17.50;1.00;;;;;;4993090;28;20008;-82
2023/03/17 16:24:27;;;;;;;;;;;17.40;1.00;;;;;;5012590;28;19914;-83
2023/03/17 16:26:57;;;;;;;;;;;17.40;1.00;;;;;;4993379;28;20282;-81
2023/03/17 16:29:27;;;;;;;;;;;17.20;1.00;;;;;;4993722;28;19910;-82
2023/03/17 16:32:11;;;;;;;;;;;17.00;1.00;;;;;;4976658;28;19914;-82
2023/03/17 16:34:39;;;;;;;;;;;17.00;1.00;;;;;;4992808;28;19984;-81
2023/03/17 16:37:14;;;;;;;;;;;16.90;1.00;;;;;;4993322;28;19921;-81
2023/03/17 16:39:51;;;;;;;;;;;16.80;1.00;;;;;;4992189;28;19947;-82
2023/03/17 16:42:33;;;;;;;;;;;16.70;1.00;;;;;;5081010;28;19908;-82
2023/03/17 16:48:02;;;;;;;;;;;16.50;1.00;;;;;;5094301;28;19958;-83
2023/03/17 16:50:51;;;;;;;;;;;16.40;1.00;;;;;;5094517;28;19916;-83
2023/03/17 16:56:20;;;;;;;;;;;16.20;1.00;;;;;;5094150;28;19919;-81
2023/03/17 16:58:47;;;;;;;;;;;16.00;1.00;;;;;;5094611;28;19912;-81
2023/03/17 17:04:21;;;;;;;;;;;15.80;1.00;;;;;;5094081;28;20290;-83
2023/03/17 17:09:49;;;;;;;;;;;15.50;1.00;;;;;;5094323;28;19919;-83
2023/03/17 17:12:15;;;;;;;;;;;15.30;1.00;;;;;;5076103;28;19912;-82
2023/03/17 17:15:09;;;;;;;;;;;15.20;1.00;;;;;;5093924;28;19912;-81
2023/03/17 17:18:03;;;;;;;;;;;15.10;1.00;;;;;;5089816;28;19962;-81
2023/03/17 17:20:39;;;;;;;;;;;15.00;1.00;;;;;;5094415;28;19931;-82
2023/03/17 17:23:10;;;;;;;;;;;14.90;1.00;;;;;;5094051;28;19912;-82
2023/03/17 17:25:40;;;;;;;;;;;14.80;1.00;;;;;;5075661;28;19919;-80
2023/03/17 17:28:09;;;;;;;;;;;14.70;1.00;;;;;;5094121;28;19970;-79
2023/03/17 17:30:46;;;;;;;;;;;14.70;1.00;;;;;;5094383;28;19909;-80
2023/03/17 17:33:15;;;;;;;;;;;14.60;1.00;;;;;;5094356;28;20010;-79
2023/03/17 17:35:51;;;;;;;;;;;14.50;1.00;;;;;;5093704;28;19916;-79
2023/03/17 17:38:19;;;;;;;;;;;14.40;1.00;;;;;;5075643;28;19912;-79
2023/03/17 17:40:58;;;;;;;;;;;14.30;1.00;;;;;;5094261;28;19908;-80
2023/03/17 17:43:27;;;;;;;;;;;14.20;1.00;;;;;;5076219;28;20273;-81
2023/03/17 17:46:03;;;;;;;;;;;14.10;1.00;;;;;;5093776;28;19912;-82
2023/03/17 17:48:33;;;;;;;;;;;14.00;1.00;;;;;;5093989;28;19912;-81
2023/03/17 17:54:01;;;;;;;;;;;13.90;1.00;;;;;;5098109;28;19977;-82
2023/03/17 17:56:27;;;;;;;;;;;13.80;1.00;;;;;;5097148;28;20358;-82
2023/03/17 18:01:55;;;;;;;;;;;13.60;1.00;;;;;;5097654;28;20421;-82
2023/03/17 18:04:39;;;;;;;;;;;13.20;1.00;;;;;;5097285;28;19908;-83
2023/03/17 18:07:21;;;;;;;;;;;13.20;1.00;;;;;;5097420;28;20364;-81
2023/03/17 18:09:46;;;;;;;;;;;13.10;1.00;;;;;;5097765;28;19908;-82
2023/03/17 18:12:12;;;;;;;;;;;13.10;1.00;;;;;;5079108;28;19916;-82
2023/03/17 18:14:39;;;;;;;;;;;13.00;1.00;;;;;;5097412;28;19915;-82
2023/03/17 18:20:32;;;;;;;;;;;12.90;1.00;;;;;;5097060;28;19916;-83
2023/03/17 18:29:04;;;;;;;;;;;12.80;1.00;;;;;;5077370;28;19919;-84
2023/03/17 18:31:57;;;;;;;;;;;12.70;1.00;;;;;;5058902;28;19912;-84
2023/03/17 18:37:25;;;;;;;;;;;12.60;1.00;;;;;;5096762;28;19978;-84
2023/03/17 18:42:54;;;;;;;;;;;12.50;1.00;;;;;;5097501;28;19954;-83
2023/03/17 18:45:27;;;;;;;;;;;12.40;1.00;;;;;;5096549;28;19912;-84
2023/03/17 18:48:09;;;;;;;;;;;12.40;1.00;;;;;;5097048;28;19913;-84
2023/03/17 18:50:39;;;;;;;;;;;12.30;1.00;;;;;;5097595;28;19999;-84
2023/03/17 18:53:39;;;;;;;;;;;12.20;1.00;;;;;;5079343;28;19991;-85
2023/03/17 18:56:04;;;;;;;;;;;12.10;1.00;;;;;;5096332;28;20379;-82
2023/03/17 18:58:30;;;;;;;;;;;12.00;1.00;;;;;;5096185;28;19912;-82
2023/03/17 19:00:57;;;;;;;;;;;12.00;1.00;;;;;;5077868;28;20007;-81
2023/03/17 19:03:27;;;;;;;;;;;12.00;1.00;;;;;;5095776;28;19951;-82
2023/03/17 19:06:09;;;;;;;;;;;11.90;1.00;;;;;;5077896;28;19951;-82
2023/03/17 19:08:39;;;;;;;;;;;11.80;1.00;;;;;;5096771;28;19934;-82
2023/03/17 19:14:08;;;;;;;;;;;11.70;1.00;;;;;;5096662;28;19915;-82
2023/03/17 19:16:56;;;;;;;;;;;11.70;1.00;;;;;;5095788;28;19912;-82
2023/03/17 19:19:27;;;;;;;;;;;11.60;1.00;;;;;;5078115;28;19915;-81
2023/03/17 19:21:53;;;;;;;;;;;11.60;1.00;;;;;;5096329;28;19915;-81
2023/03/17 19:24:27;;;;;;;;;;;11.50;1.00;;;;;;5077878;28;19908;-83
2023/03/17 19:26:52;;;;;;;;;;;11.50;1.00;;;;;;5096356;28;19995;-82
2023/03/17 19:29:18;;;;;;;;;;;11.40;1.00;;;;;;5096562;28;20016;-81
2023/03/17 19:31:44;;;;;;;;;;;11.40;1.00;;;;;;5076170;28;19920;-81
2023/03/17 19:34:15;;;;;;;;;;;11.40;1.00;;;;;;5095120;28;19908;-80
2023/03/17 19:36:45;;;;;;;;;;;11.40;1.00;;;;;;5095324;28;19970;-79
2023/03/17 19:39:15;;;;;;;;;;;11.40;1.00;;;;;;5095714;28;19934;-82